Time;durP1;ratioP1;P1;durP2;ratioP2;P2;SDS_P1;SDS_P2;PMS_P1;PMS_P2;Temp;Humidity;BMP_temperature;BMP_pressure;BME280_temperature;BME280_humidity;BME280_pressure;Samples;Min_cycle;Max_cycle;Signal;HPM_P1;HPM_P2
2022/03/28 00:00:20;;;;;;;28.17;8.82;;;10.20;99.90;;;;;;5055899;28;20037;-82
2022/03/28 00:02:46;;;;;;;28.45;8.70;;;9.60;99.90;;;;;;5055254;28;20025;-82
2022/03/28 00:05:16;;;;;;;28.83;8.05;;;10.00;99.90;;;;;;5055776;28;20477;-82
2022/03/28 00:07:42;;;;;;;19.13;7.35;;;10.30;99.90;;;;;;5055564;28;20397;-84
2022/03/28 00:10:09;;;;;;;31.02;7.97;;;10.30;99.90;;;;;;5054375;28;20124;-82
2022/03/28 00:12:35;;;;;;;18.42;7.40;;;10.20;99.90;;;;;;5055514;28;20423;-73
2022/03/28 00:15:02;;;;;;;30.25;8.27;;;10.10;99.90;;;;;;5055511;28;20033;-81
2022/03/28 00:17:28;;;;;;;26.33;7.80;;;10.50;99.90;;;;;;5053987;28;20033;-82
2022/03/28 00:19:53;;;;;;;28.38;8.32;;;10.80;99.90;;;;;;5055439;28;20025;-82
2022/03/28 00:22:19;;;;;;;25.25;8.02;;;10.70;99.90;;;;;;5055147;28;20025;-82
2022/03/28 00:24:45;;;;;;;21.92;7.20;;;10.60;99.90;;;;;;5055205;28;20116;-82
2022/03/28 00:27:11;;;;;;;35.33;8.07;;;9.50;99.90;;;;;;5055460;28;20120;-82
2022/03/28 00:29:37;;;;;;;25.98;7.75;;;9.50;99.90;;;;;;5036634;28;20456;-82
2022/03/28 00:32:04;;;;;;;22.55;8.05;;;9.90;99.90;;;;;;5054885;28;20033;-81
2022/03/28 00:34:29;;;;;;;30.50;8.77;;;10.10;99.90;;;;;;5055071;28;20060;-81
2022/03/28 00:36:55;;;;;;;30.23;8.68;;;10.40;99.90;;;;;;5055047;28;20029;-81
2022/03/28 00:39:21;;;;;;;32.22;9.00;;;10.60;99.90;;;;;;5053568;28;20033;-81
2022/03/28 00:41:51;;;;;;;26.25;8.98;;;10.80;99.90;;;;;;5055168;28;20025;-81
2022/03/28 00:44:18;;;;;;;25.25;8.40;;;10.40;99.90;;;;;;5054861;28;20032;-81
2022/03/28 00:46:44;;;;;;;26.92;7.72;;;10.20;99.90;;;;;;5038968;28;20063;-80
2022/03/28 00:49:10;;;;;;;26.08;9.02;;;9.30;99.90;;;;;;5054765;28;20029;-81
2022/03/28 00:51:38;;;;;;;28.15;8.50;;;9.70;99.90;;;;;;5055148;28;20112;-80
2022/03/28 00:54:05;;;;;;;30.92;8.98;;;9.80;99.90;;;;;;5054452;28;20037;-82
2022/03/28 00:56:31;;;;;;;26.23;8.00;;;9.90;99.90;;;;;;5054935;28;20044;-81
2022/03/28 00:58:58;;;;;;;27.85;8.32;;;9.80;99.90;;;;;;5054467;28;20470;-80
2022/03/28 01:01:26;;;;;;;27.80;8.32;;;9.30;99.90;;;;;;5054848;28;20032;-80
2022/03/28 01:03:52;;;;;;;25.63;8.25;;;9.70;99.90;;;;;;5035866;28;20041;-81
2022/03/28 01:06:18;;;;;;;23.45;7.30;;;9.70;99.90;;;;;;5034750;28;20028;-81
2022/03/28 01:08:44;;;;;;;27.55;8.18;;;9.80;99.90;;;;;;5034891;28;20087;-81
2022/03/28 01:11:10;;;;;;;29.88;8.38;;;9.90;99.90;;;;;;5034752;28;20462;-81
2022/03/28 01:13:38;;;;;;;23.17;8.75;;;9.90;99.90;;;;;;5033010;28;20032;-81
2022/03/28 01:16:05;;;;;;;29.23;8.93;;;10.00;99.90;;;;;;5034532;28;20124;-80
2022/03/28 01:18:31;;;;;;;26.98;8.68;;;9.10;99.90;;;;;;5034090;28;20086;-81
2022/03/28 01:20:58;;;;;;;30.33;9.63;;;8.50;99.90;;;;;;5034442;28;20421;-80
2022/03/28 01:23:24;;;;;;;30.27;9.65;;;8.90;99.90;;;;;;5034507;28;20420;-82
2022/03/28 01:25:51;;;;;;;39.30;11.35;;;9.10;99.90;;;;;;5034255;28;20033;-81
2022/03/28 01:28:21;;;;;;;25.17;10.90;;;9.30;99.90;;;;;;5033929;28;20060;-82
2022/03/28 01:30:48;;;;;;;34.33;11.05;;;9.50;99.90;;;;;;5034171;28;20034;-81
2022/03/28 01:33:14;;;;;;;39.95;12.45;;;8.70;99.90;;;;;;5034038;28;20513;-80
2022/03/28 01:35:41;;;;;;;38.80;13.68;;;8.80;99.90;;;;;;5033998;28;20080;-81
2022/03/28 01:38:11;;;;;;;40.33;12.95;;;9.20;99.90;;;;;;5032878;28;20661;-81
2022/03/28 01:40:41;;;;;;;42.42;13.38;;;9.40;99.90;;;;;;5033107;28;20080;-80
2022/03/28 01:43:07;;;;;;;52.53;14.45;;;9.10;99.90;;;;;;5033632;28;20044;-80
2022/03/28 01:45:32;;;;;;;24.95;10.65;;;8.40;99.90;;;;;;5033891;28;20064;-78
2022/03/28 01:47:58;;;;;;;33.72;10.85;;;8.30;99.90;;;;;;5047731;28;20056;-80
2022/03/28 01:50:25;;;;;;;33.45;12.32;;;8.70;99.90;;;;;;5053754;28;20025;-81
2022/03/28 01:52:51;;;;;;;35.17;11.80;;;8.60;99.90;;;;;;5053817;28;20417;-80
2022/03/28 01:55:17;;;;;;;32.15;12.00;;;8.90;99.90;;;;;;5053258;28;20044;-80
2022/03/28 01:57:44;;;;;;;31.55;10.55;;;8.80;99.90;;;;;;5053279;28;20030;-80
2022/03/28 02:00:16;;;;;;;37.38;11.52;;;8.60;99.90;;;;;;5053496;28;20037;-81
2022/03/28 02:02:42;;;;;;;20.92;9.40;;;8.80;99.90;;;;;;5043279;28;20021;-81
2022/03/28 02:05:11;;;;;;;26.88;10.13;;;8.80;99.90;;;;;;5031981;28;20026;-78
2022/03/28 02:07:38;;;;;;;38.83;11.30;;;9.10;99.90;;;;;;5033628;28;20122;-80
2022/03/28 02:10:05;;;;;;;30.02;9.75;;;9.20;99.90;;;;;;5032282;28;20021;-70
2022/03/28 02:12:31;;;;;;;33.45;10.30;;;9.20;99.90;;;;;;5033189;28;20112;-76
2022/03/28 02:14:56;;;;;;;28.90;10.05;;;8.60;99.90;;;;;;5033145;28;20132;-76
2022/03/28 02:17:23;;;;;;;26.80;9.98;;;8.60;99.90;;;;;;5033251;28;20201;-77
2022/03/28 02:19:48;;;;;;;27.90;9.25;;;9.00;99.90;;;;;;5031899;28;20097;-69
2022/03/28 02:22:14;;;;;;;28.35;10.07;;;9.00;99.90;;;;;;5033089;28;20041;-80
2022/03/28 02:24:40;;;;;;;29.13;10.02;;;8.80;99.90;;;;;;5032964;28;20069;-81
2022/03/28 02:27:07;;;;;;;32.30;10.30;;;8.80;99.90;;;;;;5033074;28;20436;-80
2022/03/28 02:29:33;;;;;;;24.23;9.50;;;8.60;99.90;;;;;;5033122;28;20072;-79
2022/03/28 02:31:59;;;;;;;28.80;9.98;;;8.50;99.90;;;;;;5033271;28;20080;-78
2022/03/28 02:34:25;;;;;;;27.75;9.65;;;8.60;99.90;;;;;;5032758;28;20025;-74
2022/03/28 02:36:51;;;;;;;38.20;9.43;;;8.50;99.90;;;;;;5033109;28;20029;-81
2022/03/28 02:39:18;;;;;;;28.35;9.90;;;8.50;99.90;;;;;;5032988;28;20048;-79
2022/03/28 02:41:43;;;;;;;29.33;10.52;;;8.90;99.90;;;;;;5032713;28;20506;-71
2022/03/28 02:44:09;;;;;;;30.20;9.68;;;8.30;99.90;;;;;;5032794;28;20031;-79
2022/03/28 02:46:36;;;;;;;27.48;9.57;;;8.00;99.90;;;;;;5035369;28;20123;-76
2022/03/28 02:49:03;;;;;;;31.27;9.90;;;8.00;99.90;;;;;;5052937;28;20050;-75
2022/03/28 02:51:29;;;;;;;24.60;9.45;;;8.00;99.90;;;;;;5052737;28;20029;-69
2022/03/28 02:53:55;;;;;;;28.67;10.60;;;8.40;99.90;;;;;;5052398;28;20029;-69
2022/03/28 02:56:21;;;;;;;24.02;9.55;;;8.50;99.90;;;;;;5052280;28;20044;-69
2022/03/28 02:58:47;;;;;;;35.38;10.43;;;8.00;99.90;;;;;;5052758;28;20024;-73
2022/03/28 03:01:13;;;;;;;27.15;9.15;;;8.20;99.90;;;;;;5051400;28;20082;-69
2022/03/28 03:03:38;;;;;;;29.15;9.73;;;8.20;99.90;;;;;;5035640;28;20065;-69
2022/03/28 03:06:04;;;;;;;27.38;9.27;;;8.60;99.90;;;;;;5032648;28;20025;-73
2022/03/28 03:08:30;;;;;;;35.72;9.85;;;7.90;99.90;;;;;;5032852;28;20034;-73
2022/03/28 03:10:55;;;;;;;26.17;9.38;;;7.70;99.90;;;;;;5031168;28;20030;-78
2022/03/28 03:13:21;;;;;;;27.00;9.63;;;8.10;99.90;;;;;;5032540;28;20116;-78
2022/03/28 03:15:47;;;;;;;33.38;10.07;;;8.40;99.90;;;;;;5032642;28;20029;-76
2022/03/28 03:18:12;;;;;;;28.88;9.63;;;8.50;99.90;;;;;;5032540;28;20033;-75
2022/03/28 03:20:38;;;;;;;24.85;9.25;;;8.40;99.90;;;;;;5032745;28;20128;-72
2022/03/28 03:23:04;;;;;;;24.98;9.93;;;8.70;99.90;;;;;;5032424;28;20061;-72
2022/03/28 03:25:30;;;;;;;36.30;10.27;;;8.70;99.90;;;;;;5032023;28;20034;-72
2022/03/28 03:27:56;;;;;;;29.80;10.73;;;8.60;99.90;;;;;;5032421;28;20046;-74
2022/03/28 03:30:22;;;;;;;30.38;10.15;;;8.70;99.90;;;;;;5032535;28;20022;-78
2022/03/28 03:32:48;;;;;;;33.65;9.80;;;8.50;99.90;;;;;;5032460;28;20428;-73
2022/03/28 03:35:13;;;;;;;42.20;9.93;;;8.40;99.90;;;;;;5032267;28;20053;-78
2022/03/28 03:37:40;;;;;;;23.40;8.77;;;8.60;99.90;;;;;;5032520;28;20037;-80
2022/03/28 03:40:07;;;;;;;22.50;8.40;;;8.50;99.90;;;;;;5032293;28;20030;-79
2022/03/28 03:42:33;;;;;;;23.15;9.35;;;8.00;99.90;;;;;;5032147;28;20042;-80
2022/03/28 03:45:01;;;;;;;26.90;9.43;;;8.00;99.90;;;;;;5032419;28;20087;-80
2022/03/28 03:47:27;;;;;;;26.40;10.80;;;7.90;99.90;;;;;;5041973;28;20017;-77
2022/03/28 03:49:53;;;;;;;32.67;10.45;;;8.10;99.90;;;;;;5052358;28;20393;-75
2022/03/28 03:52:19;;;;;;;28.55;10.70;;;8.40;99.90;;;;;;5052219;28;20025;-70
2022/03/28 03:54:44;;;;;;;37.70;9.02;;;8.50;99.90;;;;;;5051754;28;20037;-80
2022/03/28 03:57:11;;;;;;;32.72;9.98;;;8.30;99.90;;;;;;5050977;28;20116;-78
2022/03/28 03:59:37;;;;;;;25.75;9.43;;;8.00;99.90;;;;;;5052291;28;20071;-80
2022/03/28 04:02:03;;;;;;;34.90;9.85;;;7.60;99.90;;;;;;5048439;28;20025;-81
2022/03/28 04:04:29;;;;;;;29.58;8.85;;;7.80;99.90;;;;;;5033391;28;20036;-80
2022/03/28 04:06:54;;;;;;;23.17;8.48;;;7.90;99.90;;;;;;5035769;28;20108;-81
2022/03/28 04:09:20;;;;;;;29.20;10.20;;;7.90;99.90;;;;;;5035403;28;20030;-79
2022/03/28 04:11:47;;;;;;;40.60;11.35;;;8.00;99.90;;;;;;5035702;28;20147;-80
2022/03/28 04:14:13;;;;;;;27.40;10.15;;;8.10;99.90;;;;;;5035327;28;20026;-81
2022/03/28 04:16:38;;;;;;;33.75;9.27;;;8.10;99.90;;;;;;5035681;28;20064;-80
2022/03/28 04:19:04;;;;;;;29.42;10.45;;;7.90;99.90;;;;;;5035611;28;20111;-80
2022/03/28 04:21:30;;;;;;;24.40;9.60;;;7.90;99.90;;;;;;5035543;28;20033;-75
2022/03/28 04:23:55;;;;;;;29.80;11.77;;;8.00;99.90;;;;;;5046565;28;20063;-80
2022/03/28 04:26:21;;;;;;;24.15;9.15;;;7.70;99.90;;;;;;5055333;28;20127;-80
2022/03/28 04:28:47;;;;;;;30.85;8.77;;;7.30;99.90;;;;;;5055197;28;20033;-80
2022/03/28 04:31:13;;;;;;;27.75;9.95;;;7.10;99.90;;;;;;5055263;28;20039;-80
2022/03/28 04:33:38;;;;;;;31.65;10.10;;;7.30;99.90;;;;;;5055190;28;20027;-81
2022/03/28 04:36:04;;;;;;;33.47;9.95;;;7.10;99.90;;;;;;5053930;28;20485;-80
2022/03/28 04:38:30;;;;;;;30.73;9.65;;;7.30;99.90;;;;;;5054697;28;20036;-79
2022/03/28 04:40:56;;;;;;;33.20;10.32;;;7.20;99.90;;;;;;5054016;28;20396;-80
2022/03/28 04:43:22;;;;;;;30.45;13.15;;;7.30;99.90;;;;;;5055026;28;20028;-82
2022/03/28 04:45:48;;;;;;;29.88;12.00;;;7.40;99.90;;;;;;5054958;28;20033;-83
2022/03/28 04:48:14;;;;;;;28.80;11.02;;;7.40;99.90;;;;;;5054791;28;20082;-82
2022/03/28 04:50:40;;;;;;;41.20;12.10;;;7.40;99.90;;;;;;5055064;28;20044;-81
2022/03/28 04:53:06;;;;;;;30.38;10.68;;;6.90;99.90;;;;;;5054454;28;20033;-80
2022/03/28 04:55:32;;;;;;;29.13;9.82;;;6.90;99.90;;;;;;5055014;28;20040;-80
2022/03/28 04:57:58;;;;;;;32.10;9.98;;;6.60;99.90;;;;;;5054738;28;20040;-80
2022/03/28 05:00:24;;;;;;;26.98;9.85;;;6.80;99.90;;;;;;5054604;28;20385;-79
2022/03/28 05:02:50;;;;;;;35.67;10.95;;;7.00;99.90;;;;;;5044287;28;20033;-81
2022/03/28 05:05:16;;;;;;;27.95;10.45;;;7.10;99.90;;;;;;5034695;28;20029;-80
2022/03/28 05:07:42;;;;;;;36.65;10.50;;;7.20;99.90;;;;;;5033194;28;20022;-81
2022/03/28 05:10:08;;;;;;;45.08;11.82;;;7.30;99.90;;;;;;5034424;28;20394;-78
2022/03/28 05:12:34;;;;;;;36.17;12.63;;;7.30;99.90;;;;;;5034700;28;20040;-81
2022/03/28 05:15:01;;;;;;;39.30;10.88;;;7.50;99.90;;;;;;5034430;28;20037;-81
2022/03/28 05:17:31;;;;;;;35.15;10.63;;;7.40;99.90;;;;;;5034248;28;20033;-81
2022/03/28 05:19:59;;;;;;;35.08;10.88;;;7.20;99.90;;;;;;5034342;28;20393;-79
2022/03/28 05:22:25;;;;;;;38.80;12.18;;;7.10;99.90;;;;;;5033084;28;20041;-81
2022/03/28 05:24:52;;;;;;;34.10;10.50;;;6.90;99.90;;;;;;5033950;28;20163;-81
2022/03/28 05:27:18;;;;;;;32.58;11.65;;;7.30;99.90;;;;;;5034348;28;20029;-82
2022/03/28 05:29:44;;;;;;;39.10;11.32;;;7.00;99.90;;;;;;5034314;28;20025;-81
2022/03/28 05:32:10;;;;;;;36.33;12.25;;;7.20;99.90;;;;;;5034051;28;20033;-81
2022/03/28 05:34:37;;;;;;;31.02;10.98;;;7.30;99.90;;;;;;5033763;28;20096;-80
2022/03/28 05:37:09;;;;;;;29.80;10.52;;;7.20;99.90;;;;;;5034038;28;20207;-80
2022/03/28 05:39:36;;;;;;;35.75;10.23;;;7.20;99.90;;;;;;5034304;28;20558;-81
2022/03/28 05:42:02;;;;;;;32.22;11.05;;;6.90;99.90;;;;;;5033842;28;20109;-80
2022/03/28 05:44:28;;;;;;;38.28;11.52;;;7.10;99.90;;;;;;5033743;28;20405;-81
2022/03/28 05:46:54;;;;;;;38.15;10.68;;;6.90;99.90;;;;;;5039024;28;20488;-80
2022/03/28 05:49:22;;;;;;;37.95;12.10;;;7.20;99.90;;;;;;5053515;28;20033;-81
2022/03/28 05:51:49;;;;;;;33.40;11.40;;;7.40;99.90;;;;;;5053672;28;20044;-81
2022/03/28 05:54:16;;;;;;;38.88;11.98;;;7.50;99.90;;;;;;5053443;28;20056;-79
2022/03/28 05:56:41;;;;;;;35.22;10.45;;;7.30;99.90;;;;;;5053550;28;20090;-79
2022/03/28 05:59:07;;;;;;;40.17;11.60;;;7.60;99.90;;;;;;5052329;28;20029;-77
2022/03/28 06:01:34;;;;;;;31.23;10.43;;;7.50;99.90;;;;;;5053489;28;20092;-79
2022/03/28 06:04:00;;;;;;;33.78;10.40;;;7.40;99.90;;;;;;5033265;28;20033;-79
2022/03/28 06:06:26;;;;;;;33.45;11.68;;;7.60;99.90;;;;;;5033221;28;20045;-73
2022/03/28 06:08:53;;;;;;;38.00;11.60;;;7.50;99.90;;;;;;5032173;28;20017;-77
2022/03/28 06:11:19;;;;;;;31.17;11.00;;;7.40;99.90;;;;;;5033482;28;20360;-75
2022/03/28 06:13:45;;;;;;;40.63;12.02;;;7.40;99.90;;;;;;5033550;28;20057;-81
2022/03/28 06:16:10;;;;;;;49.35;12.50;;;7.80;99.90;;;;;;5033135;28;20057;-73
2022/03/28 06:18:36;;;;;;;40.92;11.30;;;8.00;99.90;;;;;;5033782;28;20608;-81
2022/03/28 06:21:02;;;;;;;34.30;11.57;;;8.10;99.90;;;;;;5052439;28;20413;-77
2022/03/28 06:23:28;;;;;;;33.15;11.80;;;8.20;99.90;;;;;;5051128;28;20032;-76
2022/03/28 06:25:53;;;;;;;48.33;14.88;;;8.40;99.90;;;;;;5031284;28;20068;-71
2022/03/28 06:28:19;;;;;;;43.13;13.20;;;8.40;99.90;;;;;;5031976;28;20435;-76
2022/03/28 06:30:45;;;;;;;45.03;12.13;;;8.60;99.90;;;;;;5032878;28;20029;-81
2022/03/28 06:33:11;;;;;;;47.15;11.57;;;8.50;99.90;;;;;;5032459;28;20030;-79
2022/03/28 06:35:38;;;;;;;47.10;12.60;;;8.60;99.90;;;;;;5032402;28;20042;-80
2022/03/28 06:38:04;;;;;;;44.90;11.73;;;8.80;99.90;;;;;;5032813;28;20073;-82
2022/03/28 06:40:29;;;;;;;60.58;14.60;;;9.00;99.90;;;;;;5032180;28;20060;-82
2022/03/28 06:42:55;;;;;;;47.88;12.65;;;9.00;99.90;;;;;;5032765;28;20036;-82
2022/03/28 06:45:21;;;;;;;41.17;12.48;;;9.00;99.90;;;;;;5031420;28;20025;-81
2022/03/28 06:47:51;;;;;;;52.65;12.95;;;9.10;99.90;;;;;;5044463;28;20381;-82
2022/03/28 06:50:18;;;;;;;43.03;12.50;;;9.30;99.90;;;;;;5036268;28;20033;-81
2022/03/28 06:52:44;;;;;;;56.10;13.60;;;9.30;99.90;;;;;;5032427;28;20545;-81
2022/03/28 06:55:10;;;;;;;50.58;12.98;;;9.20;99.90;;;;;;5032755;28;20041;-80
2022/03/28 06:57:37;;;;;;;50.53;13.73;;;9.00;99.90;;;;;;5032323;28;20167;-81
2022/03/28 07:00:05;;;;;;;51.70;13.48;;;9.50;99.90;;;;;;5032004;28;20053;-78
2022/03/28 07:02:30;;;;;;;54.55;14.93;;;9.50;99.90;;;;;;5037216;28;20017;-80
2022/03/28 07:04:57;;;;;;;49.10;13.95;;;9.40;99.90;;;;;;5032069;28;20393;-81
2022/03/28 07:07:22;;;;;;;40.45;13.45;;;9.60;99.90;;;;;;5031639;28;20021;-76
2022/03/28 07:09:48;;;;;;;58.00;14.00;;;9.80;99.90;;;;;;5031867;28;20397;-76
2022/03/28 07:12:14;;;;;;;52.13;14.32;;;9.90;99.90;;;;;;5032182;28;20034;-72
2022/03/28 07:14:41;;;;;;;47.47;13.90;;;9.60;99.90;;;;;;5032173;28;20541;-81
2022/03/28 07:17:06;;;;;;;44.45;14.00;;;9.70;99.90;;;;;;5031801;28;20024;-80
2022/03/28 07:19:32;;;;;;;42.28;13.55;;;9.70;99.90;;;;;;5041509;28;20029;-77
2022/03/28 07:21:58;;;;;;;44.88;13.57;;;9.90;99.90;;;;;;5051762;28;20044;-78
2022/03/28 07:24:24;;;;;;;46.30;13.40;;;10.00;99.90;;;;;;5051102;28;20033;-70
2022/03/28 07:26:50;;;;;;;56.45;15.38;;;10.10;99.90;;;;;;5051835;28;20041;-79
2022/03/28 07:29:17;;;;;;;51.13;14.20;;;10.20;99.90;;;;;;5052045;28;20025;-80
2022/03/28 07:31:49;;;;;;;50.67;13.18;;;10.20;99.90;;;;;;5051236;28;20366;-76
2022/03/28 07:34:32;;;;;;;44.83;15.57;;;10.30;99.90;;;;;;5050812;28;20029;-75
2022/03/28 07:36:59;;;;;;;46.85;14.60;;;10.40;99.90;;;;;;5051641;28;20139;-76
2022/03/28 07:39:26;;;;;;;49.25;15.20;;;10.20;99.90;;;;;;5052835;28;20460;-69
2022/03/28 07:41:52;;;;;;;40.67;14.45;;;10.40;99.90;;;;;;5055704;28;20437;-70
2022/03/28 07:44:18;;;;;;;47.58;14.55;;;10.40;99.90;;;;;;5055940;28;20494;-80
2022/03/28 07:46:45;;;;;;;64.93;16.52;;;10.80;99.90;;;;;;5055086;28;20031;-75
2022/03/28 07:49:16;;;;;;;50.80;16.15;;;11.00;99.90;;;;;;5047642;28;20553;-73
2022/03/28 07:51:42;;;;;;;51.38;15.75;;;11.00;99.90;;;;;;5035540;28;20033;-77
2022/03/28 07:54:08;;;;;;;48.60;15.27;;;11.00;99.90;;;;;;5035128;28;20033;-74
2022/03/28 07:56:34;;;;;;;32.90;13.90;;;11.10;99.90;;;;;;5035183;28;20036;-80
2022/03/28 07:59:00;;;;;;;46.15;14.98;;;11.40;99.90;;;;;;5035341;28;20086;-74
2022/03/28 08:01:26;;;;;;;44.97;16.83;;;11.30;99.90;;;;;;5035187;28;20021;-77
2022/03/28 08:03:52;;;;;;;53.00;16.42;;;11.40;99.90;;;;;;5053635;28;20392;-71
2022/03/28 08:06:18;;;;;;;41.78;16.20;;;11.80;99.90;;;;;;5055428;28;20029;-77
2022/03/28 08:08:44;;;;;;;57.55;17.17;;;11.70;99.90;;;;;;5039718;28;20489;-76
2022/03/28 08:11:10;;;;;;;57.70;19.98;;;12.00;99.90;;;;;;5035367;28;20029;-70
2022/03/28 08:13:36;;;;;;;49.90;17.20;;;12.10;99.90;;;;;;5034897;28;20035;-72
2022/03/28 08:16:03;;;;;;;51.95;16.23;;;12.00;99.90;;;;;;5017011;28;20104;-75
2022/03/28 08:18:29;;;;;;;48.03;17.52;;;12.20;99.90;;;;;;5035957;28;20045;-77
2022/03/28 08:20:56;;;;;;;62.03;19.50;;;12.20;99.90;;;;;;5055003;28;20505;-73
2022/03/28 08:23:22;;;;;;;52.47;18.58;;;12.70;99.90;;;;;;5054849;28;20017;-77
2022/03/28 08:25:49;;;;;;;65.97;18.65;;;12.90;99.90;;;;;;5054393;28;20029;-73
2022/03/28 08:28:15;;;;;;;62.63;19.60;;;13.00;99.90;;;;;;5054813;28;20072;-77
2022/03/28 08:30:41;;;;;;;54.85;17.35;;;13.20;99.90;;;;;;5054372;28;20021;-80
2022/03/28 08:33:07;;;;;;;56.00;19.58;;;13.40;99.90;;;;;;5054601;28;20440;-74
2022/03/28 08:35:33;;;;;;;56.70;19.08;;;13.40;99.90;;;;;;5054818;28;20048;-75
2022/03/28 08:37:59;;;;;;;56.28;19.02;;;13.60;99.90;;;;;;5054563;28;20036;-79
2022/03/28 08:40:25;;;;;;;50.70;20.13;;;13.50;99.90;;;;;;5054535;28;20036;-72
2022/03/28 08:42:51;;;;;;;52.88;20.00;;;13.70;99.90;;;;;;5054585;28;20037;-77
2022/03/28 08:45:17;;;;;;;48.72;19.73;;;13.50;99.90;;;;;;5053447;28;20083;-71
2022/03/28 08:47:49;;;;;;;45.65;20.27;;;13.90;99.90;;;;;;5054389;28;20032;-80
2022/03/28 08:50:15;;;;;;;;;;;14.40;99.90;;;;;;5038690;28;20067;-71
2022/03/28 08:52:42;;;;;;;47.97;19.23;;;14.00;99.90;;;;;;5034641;28;19944;-79
2022/03/28 08:55:09;;;;;;;44.00;19.23;;;14.00;99.90;;;;;;5034392;28;20037;-74
2022/03/28 08:57:35;;;;;;;47.65;20.25;;;13.30;99.90;;;;;;5034454;28;20033;-78
2022/03/28 09:00:04;;;;;;;48.45;21.50;;;12.90;99.90;;;;;;5034443;28;20029;-79
2022/03/28 09:02:32;;;;;;;54.63;20.60;;;13.60;99.90;;;;;;5041749;28;20111;-75
2022/03/28 09:04:59;;;;;;;45.65;19.40;;;14.20;99.90;;;;;;5053090;28;20052;-79
2022/03/28 09:07:26;;;;;;;52.17;21.52;;;14.30;99.90;;;;;;5034498;28;20026;-75
2022/03/28 09:10:03;;;;;;;35.63;20.05;;;14.00;99.90;;;;;;5033924;28;20067;-81
2022/03/28 09:12:29;;;;;;;51.35;20.40;;;14.40;99.90;;;;;;5033684;28;20168;-75
2022/03/28 09:15:03;;;;;;;41.20;20.48;;;14.80;99.90;;;;;;5032278;28;20124;-78
2022/03/28 09:17:29;;;;;;;34.97;19.85;;;14.60;99.90;;;;;;5046810;28;20103;-78
2022/03/28 09:19:59;;;;;;;43.60;21.65;;;14.30;99.90;;;;;;5045998;28;20481;-77
2022/03/28 09:22:34;;;;;;;50.83;21.90;;;14.60;99.90;;;;;;5051676;28;20033;-83
2022/03/28 09:25:04;;;;;;;46.10;20.27;;;15.30;99.90;;;;;;5053501;28;20028;-79
2022/03/28 09:27:41;;;;;;;43.92;20.52;;;15.60;99.90;;;;;;5053623;28;20041;-82
2022/03/28 09:30:11;;;;;;;41.30;22.00;;;15.40;99.80;;;;;;5053692;28;20025;-81
2022/03/28 09:32:43;;;;;;;51.95;21.45;;;15.50;99.10;;;;;;5053146;28;20043;-83
2022/03/28 09:35:13;;;;;;;48.38;21.23;;;15.50;99.90;;;;;;5053284;28;20032;-79
2022/03/28 09:38:02;;;;;;;43.65;20.45;;;15.60;99.70;;;;;;5058123;28;20029;-84
2022/03/28 09:40:28;;;;;;;53.45;20.50;;;15.20;99.90;;;;;;5053632;28;20033;-84
2022/03/28 09:42:54;;;;;;;44.80;19.67;;;15.30;99.90;;;;;;5053111;28;20036;-84
2022/03/28 09:45:30;;;;;;;42.08;21.05;;;15.80;99.80;;;;;;5053830;28;20381;-83
2022/03/28 09:47:59;;;;;;;40.40;20.25;;;15.70;99.90;;;;;;5053922;28;20029;-83
2022/03/28 09:50:37;;;;;;;44.03;20.35;;;16.10;98.50;;;;;;5041423;28;20057;-83
2022/03/28 09:53:11;;;;;;;38.33;20.40;;;16.00;98.50;;;;;;5053761;28;20032;-83
2022/03/28 09:55:52;;;;;;;37.45;20.27;;;16.00;97.70;;;;;;5050837;28;20117;-75
2022/03/28 09:58:36;;;;;;;43.58;20.40;;;16.30;97.30;;;;;;5033645;28;20041;-84
2022/03/28 10:01:06;;;;;;;36.20;20.13;;;16.50;95.90;;;;;;5052349;28;20043;-84
2022/03/28 10:03:33;;;;;;;44.65;21.48;;;16.80;95.60;;;;;;5053285;28;20025;-81
2022/03/28 10:06:04;;;;;;;46.35;20.98;;;16.30;96.20;;;;;;5053532;28;20096;-84
2022/03/28 10:08:30;;;;;;;45.17;21.05;;;16.00;95.40;;;;;;5054435;28;20122;-84
2022/03/28 10:10:58;;;;;;;45.00;23.23;;;15.90;95.90;;;;;;5055429;28;20077;-84
2022/03/28 10:13:24;;;;;;;40.72;21.92;;;16.40;96.00;;;;;;5054435;28;20043;-84
2022/03/28 10:15:50;;;;;;;42.45;21.25;;;16.80;95.90;;;;;;5053259;28;20049;-84
2022/03/28 10:18:16;;;;;;;34.05;16.23;;;16.90;95.00;;;;;;5053123;28;20025;-85
2022/03/28 10:20:45;;;;;;;38.20;19.27;;;17.30;94.00;;;;;;5052783;28;20461;-84
2022/03/28 10:23:14;;;;;;;38.67;17.38;;;16.90;94.20;;;;;;5053012;28;20021;-84
2022/03/28 10:25:41;;;;;;;33.35;15.45;;;17.30;95.10;;;;;;5052453;28;20041;-85
2022/03/28 10:28:08;;;;;;;35.42;15.20;;;17.90;93.70;;;;;;5053092;28;20401;-85
2022/03/28 10:30:34;;;;;;;28.80;14.88;;;18.40;93.60;;;;;;5046981;28;20029;-85
2022/03/28 10:33:14;;;;;;;34.00;15.88;;;18.40;92.00;;;;;;5033177;28;20519;-83
2022/03/28 10:35:55;;;;;;;31.30;16.08;;;18.30;92.80;;;;;;5032674;28;20056;-83
2022/03/28 10:38:22;;;;;;;28.48;14.27;;;18.10;93.50;;;;;;5033227;28;20030;-83
2022/03/28 10:40:55;;;;;;;32.15;14.52;;;18.20;93.00;;;;;;5031493;28;20072;-83
2022/03/28 10:43:25;;;;;;;31.50;11.55;;;18.50;92.40;;;;;;5033051;28;20370;-83
2022/03/28 10:45:53;;;;;;;24.30;10.73;;;18.30;92.00;;;;;;5032813;28;20528;-83
2022/03/28 10:48:48;;;;;;;40.20;15.32;;;18.30;92.20;;;;;;5033105;28;20045;-83
2022/03/28 10:51:16;;;;;;;37.63;14.85;;;18.70;92.00;;;;;;5033050;28;20034;-85
2022/03/28 10:54:12;;;;;;;29.58;12.80;;;19.00;92.40;;;;;;5032879;28;20037;-84
2022/03/28 10:56:42;;;;;;;29.05;11.85;;;19.30;91.40;;;;;;5031804;28;20414;-84
2022/03/28 10:59:11;;;;;;;30.77;14.38;;;19.10;90.40;;;;;;5033069;28;20030;-86
2022/03/28 11:01:37;;;;;;;35.47;15.32;;;19.20;90.80;;;;;;5032922;28;20021;-79
2022/03/28 11:04:04;;;;;;;34.88;15.27;;;19.20;91.10;;;;;;5052583;28;20029;-85
2022/03/28 11:07:03;;;;;;;29.05;13.43;;;19.40;91.20;;;;;;5052759;28;20543;-85
2022/03/28 11:09:42;;;;;;;31.70;14.60;;;19.60;90.40;;;;;;5052351;28;20025;-86
2022/03/28 11:12:15;;;;;;;37.38;15.32;;;18.40;91.30;;;;;;5052463;28;20354;-86
2022/03/28 11:14:43;;;;;;;32.95;14.93;;;18.70;91.20;;;;;;5056286;28;20071;-86
2022/03/28 11:17:20;;;;;;;38.15;17.33;;;18.80;91.70;;;;;;5056601;28;20025;-86
2022/03/28 11:20:18;;;;;;;39.72;16.45;;;18.90;91.30;;;;;;5056868;28;20052;-85
2022/03/28 11:22:56;;;;;;;33.08;17.27;;;19.20;90.80;;;;;;5056049;28;20032;-82
2022/03/28 11:25:38;;;;;;;40.35;16.45;;;19.40;91.10;;;;;;5055631;28;20037;-85
2022/03/28 11:28:08;;;;;;;30.35;14.57;;;19.70;91.60;;;;;;5056477;28;20025;-86
2022/03/28 11:30:48;;;;;;;28.55;15.27;;;20.20;90.40;;;;;;5056532;28;20056;-86
2022/03/28 11:33:26;;;;;;;27.88;13.85;;;19.90;90.30;;;;;;5056330;28;20090;-86
2022/03/28 11:35:54;;;;;;;29.85;14.73;;;19.60;90.60;;;;;;5055191;28;20120;-86
2022/03/28 11:38:28;;;;;;;27.40;13.65;;;20.40;88.40;;;;;;5054918;28;20096;-83
2022/03/28 11:40:55;;;;;;;28.77;15.00;;;20.70;86.80;;;;;;5056593;28;20029;-87
2022/03/28 11:43:34;;;;;;;22.00;14.30;;;20.90;86.40;;;;;;5056205;28;20424;-86
2022/03/28 11:46:02;;;;;;;27.95;15.02;;;21.20;85.40;;;;;;5056327;28;20493;-86
2022/03/28 11:48:29;;;;;;;30.77;13.77;;;21.50;85.50;;;;;;5055992;28;20028;-82
2022/03/28 11:50:55;;;;;;;34.22;14.10;;;21.20;83.10;;;;;;5043738;28;20021;-85
2022/03/28 11:53:21;;;;;;;24.75;12.82;;;21.60;80.60;;;;;;5035965;28;20049;-87
2022/03/28 11:55:53;;;;;;;28.70;12.70;;;21.40;81.80;;;;;;5036975;28;20041;-86
2022/03/28 11:58:29;;;;;;;31.15;13.73;;;21.90;82.30;;;;;;5036540;28;20049;-85
2022/03/28 12:01:07;;;;;;;24.00;12.05;;;22.40;80.80;;;;;;5036358;28;20033;-85
2022/03/28 12:03:33;;;;;;;22.08;11.80;;;22.50;77.10;;;;;;5052019;28;20473;-85
2022/03/28 12:06:00;;;;;;;29.70;12.85;;;22.90;79.20;;;;;;5055930;28;20085;-85
2022/03/28 12:08:28;;;;;;;24.67;13.13;;;22.70;80.50;;;;;;5056010;28;20036;-86
2022/03/28 12:10:54;;;;;;;21.63;12.13;;;22.80;80.80;;;;;;5055907;28;20135;-81
2022/03/28 12:13:22;;;;;;;23.83;12.07;;;23.20;80.70;;;;;;5056354;28;20025;-85
2022/03/28 12:15:51;;;;;;;22.45;11.25;;;22.30;79.40;;;;;;5058587;28;20496;-86
2022/03/28 12:18:20;;;;;;;23.98;10.75;;;22.20;80.30;;;;;;5056743;28;20025;-83
2022/03/28 12:20:49;;;;;;;24.58;12.48;;;23.00;78.70;;;;;;5056824;28;20044;-84
2022/03/28 12:23:18;;;;;;;24.33;11.05;;;24.10;78.10;;;;;;5056522;28;20032;-85
2022/03/28 12:25:46;;;;;;;23.63;11.10;;;24.70;77.00;;;;;;5055757;28;20043;-84
2022/03/28 12:28:33;;;;;;;23.45;11.30;;;25.10;74.60;;;;;;5056452;28;20513;-85
2022/03/28 12:31:01;;;;;;;23.17;11.02;;;22.30;76.60;;;;;;5056565;28;20040;-86
2022/03/28 12:33:38;;;;;;;20.17;10.75;;;23.30;75.20;;;;;;5055075;28;20040;-84
2022/03/28 12:36:07;;;;;;;20.45;11.50;;;22.60;76.80;;;;;;5057607;28;20041;-86
2022/03/28 12:38:36;;;;;;;24.63;11.45;;;22.60;76.30;;;;;;5057883;28;20029;-85